sensor_id;sensor_type;location;lat;lon;timestamp;P1;durP1;ratioP1;P2;durP2;ratioP2
66342;SDS011;53144;51.524;5.080;2022-10-16T09:07:39;4.47;;;2.05;;
66342;SDS011;53144;51.524;5.080;2022-10-16T09:10:31;4.45;;;2.05;;
66342;SDS011;53144;51.524;5.080;2022-10-16T09:18:32;4.57;;;1.77;;
66342;SDS011;53144;51.524;5.080;2022-10-16T09:21:14;5.07;;;1.50;;
66342;SDS011;53144;51.524;5.080;2022-10-16T09:23:43;9.82;;;2.08;;
66342;SDS011;53144;51.524;5.080;2022-10-16T09:26:13;8.77;;;2.25;;
66342;SDS011;53144;51.524;5.080;2022-10-16T09:28:40;5.88;;;1.80;;
66342;SDS011;53144;51.524;5.080;2022-10-16T09:31:10;4.45;;;1.52;;
66342;SDS011;53144;51.524;5.080;2022-10-16T09:33:42;7.00;;;1.50;;
66342;SDS011;53144;51.524;5.080;2022-10-16T09:36:10;7.00;;;1.90;;
66342;SDS011;53144;51.524;5.080;2022-10-16T09:38:38;7.82;;;2.00;;
66342;SDS011;53144;51.524;5.080;2022-10-16T09:41:11;6.47;;;1.85;;
66342;SDS011;53144;51.524;5.080;2022-10-16T09:46:24;6.43;;;2.00;;
66342;SDS011;53144;51.524;5.080;2022-10-16T09:48:51;3.53;;;1.77;;
66342;SDS011;53144;51.524;5.080;2022-10-16T09:56:27;10.10;;;2.25;;
66342;SDS011;53144;51.524;5.080;2022-10-16T09:58:58;4.63;;;1.63;;
66342;SDS011;53144;51.524;5.080;2022-10-16T10:01:38;11.63;;;2.63;;
66342;SDS011;53144;51.524;5.080;2022-10-16T10:04:18;7.70;;;2.15;;
66342;SDS011;53144;51.524;5.080;2022-10-16T10:06:46;13.07;;;2.42;;
66342;SDS011;53144;51.524;5.080;2022-10-16T10:11:50;7.88;;;1.90;;
66342;SDS011;53144;51.524;5.080;2022-10-16T10:14:19;10.45;;;2.00;;
66342;SDS011;53144;51.524;5.080;2022-10-16T10:16:47;14.13;;;2.50;;
66342;SDS011;53144;51.524;5.080;2022-10-16T10:19:23;8.50;;;2.40;;
66342;SDS011;53144;51.524;5.080;2022-10-16T10:21:49;10.38;;;2.35;;
66342;SDS011;53144;51.524;5.080;2022-10-16T10:24:17;9.35;;;2.45;;
66342;SDS011;53144;51.524;5.080;2022-10-16T10:26:54;10.27;;;2.20;;
66342;SDS011;53144;51.524;5.080;2022-10-16T10:29:40;9.25;;;2.30;;
66342;SDS011;53144;51.524;5.080;2022-10-16T10:32:14;9.60;;;1.98;;
66342;SDS011;53144;51.524;5.080;2022-10-16T10:42:59;7.38;;;2.40;;
66342;SDS011;53144;51.524;5.080;2022-10-16T10:45:47;11.57;;;2.58;;
66342;SDS011;53144;51.524;5.080;2022-10-16T10:59:02;10.45;;;2.55;;
66342;SDS011;53144;51.524;5.080;2022-10-16T11:06:50;12.80;;;1.98;;
66342;SDS011;53144;51.524;5.080;2022-10-16T11:09:21;10.57;;;2.20;;
66342;SDS011;53144;51.524;5.080;2022-10-16T11:14:41;10.55;;;3.08;;
66342;SDS011;53144;51.524;5.080;2022-10-16T11:17:12;12.75;;;2.33;;
66342;SDS011;53144;51.524;5.080;2022-10-16T11:19:46;12.68;;;2.38;;
66342;SDS011;53144;51.524;5.080;2022-10-16T11:30:20;11.68;;;2.80;;
66342;SDS011;53144;51.524;5.080;2022-10-16T11:35:24;18.10;;;2.70;;
66342;SDS011;53144;51.524;5.080;2022-10-16T11:37:57;11.30;;;2.72;;
66342;SDS011;53144;51.524;5.080;2022-10-16T11:40:25;10.63;;;2.60;;
66342;SDS011;53144;51.524;5.080;2022-10-16T11:43:06;8.50;;;2.40;;
66342;SDS011;53144;51.524;5.080;2022-10-16T11:45:57;7.60;;;2.05;;
66342;SDS011;53144;51.524;5.080;2022-10-16T11:49:27;8.68;;;2.58;;
66342;SDS011;53144;51.524;5.080;2022-10-16T11:51:38;11.68;;;2.47;;
66342;SDS011;53144;51.524;5.080;2022-10-16T11:54:24;11.25;;;2.50;;
66342;SDS011;53144;51.524;5.080;2022-10-16T11:56:57;13.02;;;2.85;;
66342;SDS011;53144;51.524;5.080;2022-10-16T12:04:49;10.55;;;2.05;;
66342;SDS011;53144;51.524;5.080;2022-10-16T12:07:24;8.35;;;2.10;;
66342;SDS011;53144;51.524;5.080;2022-10-16T12:09:57;9.65;;;2.33;;
66342;SDS011;53144;51.524;5.080;2022-10-16T12:15:19;10.02;;;2.63;;
66342;SDS011;53144;51.524;5.080;2022-10-16T12:17:52;11.23;;;2.17;;
66342;SDS011;53144;51.524;5.080;2022-10-16T12:20:22;12.18;;;2.20;;
66342;SDS011;53144;51.524;5.080;2022-10-16T12:22:54;8.65;;;1.88;;
66342;SDS011;53144;51.524;5.080;2022-10-16T12:25:29;9.52;;;2.20;;
66342;SDS011;53144;51.524;5.080;2022-10-16T12:30:25;8.35;;;2.00;;
66342;SDS011;53144;51.524;5.080;2022-10-16T12:32:56;8.52;;;2.53;;
66342;SDS011;53144;51.524;5.080;2022-10-16T12:35:26;9.50;;;2.30;;
66342;SDS011;53144;51.524;5.080;2022-10-16T12:38:03;10.82;;;2.05;;
66342;SDS011;53144;51.524;5.080;2022-10-16T12:40:32;7.30;;;2.30;;
66342;SDS011;53144;51.524;5.080;2022-10-16T12:42:59;9.82;;;1.88;;
66342;SDS011;53144;51.524;5.080;2022-10-16T12:45:35;8.70;;;2.40;;
66342;SDS011;53144;51.524;5.080;2022-10-16T12:48:01;11.10;;;2.03;;
66342;SDS011;53144;51.524;5.080;2022-10-16T12:50:34;8.05;;;2.08;;
66342;SDS011;53144;51.524;5.080;2022-10-16T12:53:04;4.45;;;1.73;;
66342;SDS011;53144;51.524;5.080;2022-10-16T12:55:47;5.40;;;2.10;;
66342;SDS011;53144;51.524;5.080;2022-10-16T13:00:57;7.40;;;2.10;;
66342;SDS011;53144;51.524;5.080;2022-10-16T13:06:27;9.25;;;1.90;;
66342;SDS011;53144;51.524;5.080;2022-10-16T13:14:46;10.18;;;2.40;;
66342;SDS011;53144;51.524;5.080;2022-10-16T13:17:50;7.90;;;1.98;;
66342;SDS011;53144;51.524;5.080;2022-10-16T13:20:21;9.20;;;2.15;;
66342;SDS011;53144;51.524;5.080;2022-10-16T13:25:55;7.90;;;1.90;;
66342;SDS011;53144;51.524;5.080;2022-10-16T13:28:32;7.72;;;2.03;;
66342;SDS011;53144;51.524;5.080;2022-10-16T13:30:59;6.30;;;1.85;;
66342;SDS011;53144;51.524;5.080;2022-10-16T13:35:55;4.97;;;1.90;;
66342;SDS011;53144;51.524;5.080;2022-10-16T13:38:25;6.97;;;1.80;;
66342;SDS011;53144;51.524;5.080;2022-10-16T13:43:19;7.40;;;2.13;;
66342;SDS011;53144;51.524;5.080;2022-10-16T13:45:58;5.68;;;1.88;;
66342;SDS011;53144;51.524;5.080;2022-10-16T13:48:26;5.82;;;1.80;;
66342;SDS011;53144;51.524;5.080;2022-10-16T13:51:00;2.75;;;1.30;;
66342;SDS011;53144;51.524;5.080;2022-10-16T13:53:29;8.27;;;1.85;;
66342;SDS011;53144;51.524;5.080;2022-10-16T13:55:56;4.53;;;1.80;;
66342;SDS011;53144;51.524;5.080;2022-10-16T13:58:22;5.20;;;1.60;;
66342;SDS011;53144;51.524;5.080;2022-10-16T14:01:01;5.78;;;2.08;;
66342;SDS011;53144;51.524;5.080;2022-10-16T14:03:30;7.63;;;2.10;;
66342;SDS011;53144;51.524;5.080;2022-10-16T14:06:00;11.38;;;1.90;;
66342;SDS011;53144;51.524;5.080;2022-10-16T14:08:28;5.63;;;1.50;;
66342;SDS011;53144;51.524;5.080;2022-10-16T14:10:59;5.20;;;1.63;;
66342;SDS011;53144;51.524;5.080;2022-10-16T14:13:34;9.73;;;1.73;;
66342;SDS011;53144;51.524;5.080;2022-10-16T14:16:10;8.80;;;1.63;;
66342;SDS011;53144;51.524;5.080;2022-10-16T14:18:40;4.97;;;1.70;;
66342;SDS011;53144;51.524;5.080;2022-10-16T14:21:07;6.53;;;1.63;;
66342;SDS011;53144;51.524;5.080;2022-10-16T14:23:37;5.43;;;1.90;;
66342;SDS011;53144;51.524;5.080;2022-10-16T14:28:38;3.03;;;1.48;;
66342;SDS011;53144;51.524;5.080;2022-10-16T14:33:44;7.30;;;2.33;;
66342;SDS011;53144;51.524;5.080;2022-10-16T14:36:11;4.75;;;1.40;;
66342;SDS011;53144;51.524;5.080;2022-10-16T14:38:39;5.45;;;1.50;;
66342;SDS011;53144;51.524;5.080;2022-10-16T14:41:08;7.65;;;1.88;;
66342;SDS011;53144;51.524;5.080;2022-10-16T14:43:35;7.75;;;1.90;;
66342;SDS011;53144;51.524;5.080;2022-10-16T14:46:11;4.80;;;1.95;;
66342;SDS011;53144;51.524;5.080;2022-10-16T14:48:42;5.47;;;1.60;;
66342;SDS011;53144;51.524;5.080;2022-10-16T14:51:13;6.82;;;1.73;;
66342;SDS011;53144;51.524;5.080;2022-10-16T14:53:40;4.53;;;1.42;;
66342;SDS011;53144;51.524;5.080;2022-10-16T14:56:06;7.75;;;1.52;;
66342;SDS011;53144;51.524;5.080;2022-10-16T14:58:33;5.63;;;1.35;;
66342;SDS011;53144;51.524;5.080;2022-10-16T15:00:59;5.28;;;1.38;;
66342;SDS011;53144;51.524;5.080;2022-10-16T15:03:25;7.60;;;1.40;;
66342;SDS011;53144;51.524;5.080;2022-10-16T15:05:50;5.85;;;1.60;;
66342;SDS011;53144;51.524;5.080;2022-10-16T15:08:15;4.13;;;1.60;;
66342;SDS011;53144;51.524;5.080;2022-10-16T15:10:42;8.07;;;1.60;;
66342;SDS011;53144;51.524;5.080;2022-10-16T15:13:11;3.90;;;1.75;;
66342;SDS011;53144;51.524;5.080;2022-10-16T15:15:38;5.38;;;1.40;;
66342;SDS011;53144;51.524;5.080;2022-10-16T15:18:07;3.55;;;1.25;;
66342;SDS011;53144;51.524;5.080;2022-10-16T15:20:33;4.43;;;1.27;;
66342;SDS011;53144;51.524;5.080;2022-10-16T15:23:10;4.57;;;1.30;;
66342;SDS011;53144;51.524;5.080;2022-10-16T15:25:43;5.88;;;1.50;;
66342;SDS011;53144;51.524;5.080;2022-10-16T15:28:10;5.68;;;1.40;;
66342;SDS011;53144;51.524;5.080;2022-10-16T15:30:36;4.07;;;1.52;;
66342;SDS011;53144;51.524;5.080;2022-10-16T15:33:03;4.03;;;1.52;;
66342;SDS011;53144;51.524;5.080;2022-10-16T15:35:29;4.50;;;1.38;;
66342;SDS011;53144;51.524;5.080;2022-10-16T15:37:55;3.72;;;1.38;;
66342;SDS011;53144;51.524;5.080;2022-10-16T15:40:22;5.57;;;1.55;;
66342;SDS011;53144;51.524;5.080;2022-10-16T15:42:48;3.13;;;1.40;;
66342;SDS011;53144;51.524;5.080;2022-10-16T15:45:13;5.78;;;1.55;;
66342;SDS011;53144;51.524;5.080;2022-10-16T15:47:40;6.53;;;1.73;;
66342;SDS011;53144;51.524;5.080;2022-10-16T15:50:06;4.75;;;1.33;;
66342;SDS011;53144;51.524;5.080;2022-10-16T15:52:33;3.83;;;1.38;;
66342;SDS011;53144;51.524;5.080;2022-10-16T15:54:59;5.68;;;1.63;;
66342;SDS011;53144;51.524;5.080;2022-10-16T15:57:24;6.03;;;1.50;;
66342;SDS011;53144;51.524;5.080;2022-10-16T15:59:52;5.55;;;1.70;;
66342;SDS011;53144;51.524;5.080;2022-10-16T16:02:17;5.30;;;1.50;;
66342;SDS011;53144;51.524;5.080;2022-10-16T16:04:43;4.28;;;1.55;;
66342;SDS011;53144;51.524;5.080;2022-10-16T16:07:08;4.07;;;1.48;;
66342;SDS011;53144;51.524;5.080;2022-10-16T16:09:34;5.40;;;1.70;;
66342;SDS011;53144;51.524;5.080;2022-10-16T16:11:59;4.07;;;1.50;;
66342;SDS011;53144;51.524;5.080;2022-10-16T16:14:26;4.25;;;1.35;;
66342;SDS011;53144;51.524;5.080;2022-10-16T16:16:55;3.38;;;1.85;;
66342;SDS011;53144;51.524;5.080;2022-10-16T16:19:21;4.60;;;1.58;;
66342;SDS011;53144;51.524;5.080;2022-10-16T16:21:47;6.40;;;1.80;;
66342;SDS011;53144;51.524;5.080;2022-10-16T16:24:14;5.25;;;1.92;;
66342;SDS011;53144;51.524;5.080;2022-10-16T16:26:40;4.35;;;1.58;;
66342;SDS011;53144;51.524;5.080;2022-10-16T16:29:08;6.93;;;1.95;;
66342;SDS011;53144;51.524;5.080;2022-10-16T16:31:37;4.97;;;1.75;;
66342;SDS011;53144;51.524;5.080;2022-10-16T16:34:03;4.70;;;1.73;;
66342;SDS011;53144;51.524;5.080;2022-10-16T16:36:28;3.65;;;1.60;;
66342;SDS011;53144;51.524;5.080;2022-10-16T16:38:54;7.30;;;1.88;;
66342;SDS011;53144;51.524;5.080;2022-10-16T16:41:22;4.57;;;1.90;;
66342;SDS011;53144;51.524;5.080;2022-10-16T16:43:50;6.05;;;2.20;;
66342;SDS011;53144;51.524;5.080;2022-10-16T16:46:16;10.02;;;2.15;;
66342;SDS011;53144;51.524;5.080;2022-10-16T16:48:42;8.48;;;2.47;;
66342;SDS011;53144;51.524;5.080;2022-10-16T16:51:08;7.68;;;2.00;;
66342;SDS011;53144;51.524;5.080;2022-10-16T16:53:40;4.38;;;1.98;;
66342;SDS011;53144;51.524;5.080;2022-10-16T16:56:05;4.60;;;1.48;;
66342;SDS011;53144;51.524;5.080;2022-10-16T16:58:31;4.82;;;1.83;;
66342;SDS011;53144;51.524;5.080;2022-10-16T17:00:57;4.30;;;1.73;;
66342;SDS011;53144;51.524;5.080;2022-10-16T17:03:33;5.10;;;1.83;;
66342;SDS011;53144;51.524;5.080;2022-10-16T17:06:08;6.47;;;2.67;;
66342;SDS011;53144;51.524;5.080;2022-10-16T17:08:34;6.75;;;3.25;;
66342;SDS011;53144;51.524;5.080;2022-10-16T17:11:00;6.03;;;3.00;;
66342;SDS011;53144;51.524;5.080;2022-10-16T17:13:27;5.05;;;2.00;;
66342;SDS011;53144;51.524;5.080;2022-10-16T17:15:54;7.65;;;1.92;;
66342;SDS011;53144;51.524;5.080;2022-10-16T17:18:21;10.60;;;1.95;;
66342;SDS011;53144;51.524;5.080;2022-10-16T17:20:47;5.57;;;2.13;;
66342;SDS011;53144;51.524;5.080;2022-10-16T17:23:13;2.75;;;1.65;;
66342;SDS011;53144;51.524;5.080;2022-10-16T17:25:40;4.95;;;1.77;;
66342;SDS011;53144;51.524;5.080;2022-10-16T17:28:06;5.47;;;1.77;;
66342;SDS011;53144;51.524;5.080;2022-10-16T17:30:33;8.48;;;1.98;;
66342;SDS011;53144;51.524;5.080;2022-10-16T17:33:00;8.07;;;2.22;;
66342;SDS011;53144;51.524;5.080;2022-10-16T17:35:26;8.00;;;2.70;;
66342;SDS011;53144;51.524;5.080;2022-10-16T17:37:52;5.45;;;2.05;;
66342;SDS011;53144;51.524;5.080;2022-10-16T17:40:18;6.22;;;2.40;;
66342;SDS011;53144;51.524;5.080;2022-10-16T17:42:44;5.78;;;2.22;;
66342;SDS011;53144;51.524;5.080;2022-10-16T17:45:09;6.30;;;2.17;;
66342;SDS011;53144;51.524;5.080;2022-10-16T17:47:35;3.72;;;2.17;;
66342;SDS011;53144;51.524;5.080;2022-10-16T17:50:01;3.90;;;1.90;;
66342;SDS011;53144;51.524;5.080;2022-10-16T17:52:27;6.25;;;1.80;;
66342;SDS011;53144;51.524;5.080;2022-10-16T17:54:53;6.63;;;2.20;;
66342;SDS011;53144;51.524;5.080;2022-10-16T17:57:19;9.23;;;2.20;;
66342;SDS011;53144;51.524;5.080;2022-10-16T17:59:44;7.05;;;2.58;;
66342;SDS011;53144;51.524;5.080;2022-10-16T18:02:10;7.68;;;2.95;;
66342;SDS011;53144;51.524;5.080;2022-10-16T18:04:35;8.35;;;2.90;;
66342;SDS011;53144;51.524;5.080;2022-10-16T18:07:01;6.18;;;2.50;;
66342;SDS011;53144;51.524;5.080;2022-10-16T18:09:27;6.25;;;3.60;;
66342;SDS011;53144;51.524;5.080;2022-10-16T18:11:53;7.55;;;3.15;;
66342;SDS011;53144;51.524;5.080;2022-10-16T18:14:24;4.57;;;2.80;;
66342;SDS011;53144;51.524;5.080;2022-10-16T18:16:51;5.15;;;2.88;;
66342;SDS011;53144;51.524;5.080;2022-10-16T18:19:17;6.35;;;3.00;;
66342;SDS011;53144;51.524;5.080;2022-10-16T18:21:43;3.65;;;2.67;;
66342;SDS011;53144;51.524;5.080;2022-10-16T18:24:08;5.82;;;3.38;;
66342;SDS011;53144;51.524;5.080;2022-10-16T18:26:34;5.28;;;2.65;;
66342;SDS011;53144;51.524;5.080;2022-10-16T18:28:59;7.40;;;3.42;;
66342;SDS011;53144;51.524;5.080;2022-10-16T18:31:26;5.28;;;2.50;;
66342;SDS011;53144;51.524;5.080;2022-10-16T18:33:52;9.57;;;3.00;;
66342;SDS011;53144;51.524;5.080;2022-10-16T18:36:22;6.18;;;2.88;;
66342;SDS011;53144;51.524;5.080;2022-10-16T18:38:50;8.65;;;3.90;;
66342;SDS011;53144;51.524;5.080;2022-10-16T18:41:17;8.02;;;4.30;;
66342;SDS011;53144;51.524;5.080;2022-10-16T18:43:42;6.38;;;3.70;;
66342;SDS011;53144;51.524;5.080;2022-10-16T18:46:18;6.22;;;4.05;;
66342;SDS011;53144;51.524;5.080;2022-10-16T18:48:45;7.85;;;4.10;;
66342;SDS011;53144;51.524;5.080;2022-10-16T18:51:13;7.15;;;4.10;;
66342;SDS011;53144;51.524;5.080;2022-10-16T18:53:43;7.63;;;3.65;;
66342;SDS011;53144;51.524;5.080;2022-10-16T18:56:10;6.00;;;3.55;;
66342;SDS011;53144;51.524;5.080;2022-10-16T18:58:38;7.93;;;3.88;;
66342;SDS011;53144;51.524;5.080;2022-10-16T19:01:06;7.50;;;4.50;;
66342;SDS011;53144;51.524;5.080;2022-10-16T19:03:33;11.63;;;5.53;;
66342;SDS011;53144;51.524;5.080;2022-10-16T19:05:59;9.35;;;4.97;;
66342;SDS011;53144;51.524;5.080;2022-10-16T19:08:29;9.60;;;4.65;;
66342;SDS011;53144;51.524;5.080;2022-10-16T19:11:05;9.48;;;4.00;;
66342;SDS011;53144;51.524;5.080;2022-10-16T19:13:31;7.00;;;3.63;;
66342;SDS011;53144;51.524;5.080;2022-10-16T19:15:57;5.20;;;3.42;;
66342;SDS011;53144;51.524;5.080;2022-10-16T19:18:24;7.78;;;3.45;;
66342;SDS011;53144;51.524;5.080;2022-10-16T19:20:53;6.60;;;4.10;;
66342;SDS011;53144;51.524;5.080;2022-10-16T19:23:19;10.55;;;4.30;;
66342;SDS011;53144;51.524;5.080;2022-10-16T19:25:45;7.32;;;3.72;;
66342;SDS011;53144;51.524;5.080;2022-10-16T19:28:10;7.82;;;3.67;;
66342;SDS011;53144;51.524;5.080;2022-10-16T19:30:37;5.72;;;3.40;;
66342;SDS011;53144;51.524;5.080;2022-10-16T19:33:04;6.45;;;3.63;;
66342;SDS011;53144;51.524;5.080;2022-10-16T19:35:30;8.20;;;3.90;;
66342;SDS011;53144;51.524;5.080;2022-10-16T19:37:57;7.63;;;3.75;;
66342;SDS011;53144;51.524;5.080;2022-10-16T19:40:23;6.65;;;3.53;;
66342;SDS011;53144;51.524;5.080;2022-10-16T19:42:49;6.45;;;3.58;;
66342;SDS011;53144;51.524;5.080;2022-10-16T19:45:14;6.93;;;3.83;;
66342;SDS011;53144;51.524;5.080;2022-10-16T19:47:40;6.07;;;3.78;;
66342;SDS011;53144;51.524;5.080;2022-10-16T19:50:08;5.72;;;3.90;;
66342;SDS011;53144;51.524;5.080;2022-10-16T19:52:34;9.18;;;4.05;;
66342;SDS011;53144;51.524;5.080;2022-10-16T19:55:02;7.93;;;4.00;;
66342;SDS011;53144;51.524;5.080;2022-10-16T19:57:28;7.15;;;4.13;;
66342;SDS011;53144;51.524;5.080;2022-10-16T19:59:54;7.90;;;4.10;;
66342;SDS011;53144;51.524;5.080;2022-10-16T20:02:19;11.70;;;4.32;;
66342;SDS011;53144;51.524;5.080;2022-10-16T20:04:45;8.75;;;4.50;;
66342;SDS011;53144;51.524;5.080;2022-10-16T20:07:10;8.35;;;4.20;;
66342;SDS011;53144;51.524;5.080;2022-10-16T20:09:36;8.07;;;4.22;;
66342;SDS011;53144;51.524;5.080;2022-10-16T20:12:01;7.82;;;4.15;;
66342;SDS011;53144;51.524;5.080;2022-10-16T20:14:27;8.00;;;4.65;;
66342;SDS011;53144;51.524;5.080;2022-10-16T20:19:19;6.90;;;3.80;;
66342;SDS011;53144;51.524;5.080;2022-10-16T20:21:44;10.65;;;4.10;;
66342;SDS011;53144;51.524;5.080;2022-10-16T20:24:10;6.47;;;4.40;;
66342;SDS011;53144;51.524;5.080;2022-10-16T20:26:36;9.95;;;4.18;;
66342;SDS011;53144;51.524;5.080;2022-10-16T20:29:02;9.77;;;4.22;;
66342;SDS011;53144;51.524;5.080;2022-10-16T20:31:28;9.43;;;3.70;;
66342;SDS011;53144;51.524;5.080;2022-10-16T20:33:59;5.57;;;3.75;;
66342;SDS011;53144;51.524;5.080;2022-10-16T20:36:31;4.80;;;3.65;;
66342;SDS011;53144;51.524;5.080;2022-10-16T20:38:57;8.48;;;4.43;;
66342;SDS011;53144;51.524;5.080;2022-10-16T20:41:23;6.57;;;4.05;;
66342;SDS011;53144;51.524;5.080;2022-10-16T20:43:49;5.20;;;3.80;;
66342;SDS011;53144;51.524;5.080;2022-10-16T20:46:17;5.78;;;4.30;;
66342;SDS011;53144;51.524;5.080;2022-10-16T20:48:44;5.22;;;3.85;;
66342;SDS011;53144;51.524;5.080;2022-10-16T20:51:18;6.13;;;4.22;;
66342;SDS011;53144;51.524;5.080;2022-10-16T20:53:59;5.78;;;3.78;;
66342;SDS011;53144;51.524;5.080;2022-10-16T20:56:27;15.38;;;4.75;;
66342;SDS011;53144;51.524;5.080;2022-10-16T20:58:55;5.65;;;4.28;;
66342;SDS011;53144;51.524;5.080;2022-10-16T21:03:48;10.10;;;4.43;;
66342;SDS011;53144;51.524;5.080;2022-10-16T21:06:18;14.55;;;5.47;;
66342;SDS011;53144;51.524;5.080;2022-10-16T21:08:44;8.93;;;4.88;;
66342;SDS011;53144;51.524;5.080;2022-10-16T21:13:41;10.98;;;5.22;;
66342;SDS011;53144;51.524;5.080;2022-10-16T21:16:07;7.70;;;5.20;;
66342;SDS011;53144;51.524;5.080;2022-10-16T21:18:34;8.23;;;5.63;;
66342;SDS011;53144;51.524;5.080;2022-10-16T21:23:25;8.82;;;5.47;;
66342;SDS011;53144;51.524;5.080;2022-10-16T21:25:51;8.90;;;5.57;;
66342;SDS011;53144;51.524;5.080;2022-10-16T21:28:16;6.75;;;5.32;;
66342;SDS011;53144;51.524;5.080;2022-10-16T21:30:42;8.43;;;5.00;;
66342;SDS011;53144;51.524;5.080;2022-10-16T21:33:11;6.72;;;5.10;;
66342;SDS011;53144;51.524;5.080;2022-10-16T21:35:36;9.48;;;5.57;;
66342;SDS011;53144;51.524;5.080;2022-10-16T21:38:02;9.73;;;5.47;;
66342;SDS011;53144;51.524;5.080;2022-10-16T21:40:30;7.85;;;5.38;;
66342;SDS011;53144;51.524;5.080;2022-10-16T21:45:21;5.45;;;4.95;;
66342;SDS011;53144;51.524;5.080;2022-10-16T21:50:12;6.80;;;5.13;;
66342;SDS011;53144;51.524;5.080;2022-10-16T21:55:03;6.82;;;5.38;;
66342;SDS011;53144;51.524;5.080;2022-10-16T21:59:54;8.18;;;5.68;;
66342;SDS011;53144;51.524;5.080;2022-10-16T22:04:45;10.52;;;5.55;;
66342;SDS011;53144;51.524;5.080;2022-10-16T22:09:35;7.50;;;5.70;;
66342;SDS011;53144;51.524;5.080;2022-10-16T22:14:26;8.27;;;5.90;;
66342;SDS011;53144;51.524;5.080;2022-10-16T22:16:51;9.48;;;6.05;;
66342;SDS011;53144;51.524;5.080;2022-10-16T22:21:44;9.90;;;5.93;;
66342;SDS011;53144;51.524;5.080;2022-10-16T22:24:11;9.98;;;6.50;;
66342;SDS011;53144;51.524;5.080;2022-10-16T22:26:37;8.60;;;6.28;;
66342;SDS011;53144;51.524;5.080;2022-10-16T22:31:28;9.80;;;6.50;;
66342;SDS011;53144;51.524;5.080;2022-10-16T22:33:54;9.98;;;6.63;;
66342;SDS011;53144;51.524;5.080;2022-10-16T22:36:20;9.82;;;7.18;;
66342;SDS011;53144;51.524;5.080;2022-10-16T22:41:12;13.55;;;6.65;;
66342;SDS011;53144;51.524;5.080;2022-10-16T22:43:40;8.52;;;7.35;;
66342;SDS011;53144;51.524;5.080;2022-10-16T22:46:08;10.52;;;7.80;;
66342;SDS011;53144;51.524;5.080;2022-10-16T22:48:35;10.15;;;6.93;;
66342;SDS011;53144;51.524;5.080;2022-10-16T22:53:26;7.78;;;7.03;;
66342;SDS011;53144;51.524;5.080;2022-10-16T22:55:52;10.95;;;7.50;;
66342;SDS011;53144;51.524;5.080;2022-10-16T23:00:43;9.13;;;6.97;;
66342;SDS011;53144;51.524;5.080;2022-10-16T23:03:09;11.88;;;7.65;;
66342;SDS011;53144;51.524;5.080;2022-10-16T23:05:41;10.65;;;7.75;;
66342;SDS011;53144;51.524;5.080;2022-10-16T23:08:08;10.88;;;7.53;;
66342;SDS011;53144;51.524;5.080;2022-10-16T23:10:36;11.90;;;7.68;;
66342;SDS011;53144;51.524;5.080;2022-10-16T23:13:02;11.82;;;7.57;;
66342;SDS011;53144;51.524;5.080;2022-10-16T23:17:53;10.35;;;7.50;;
66342;SDS011;53144;51.524;5.080;2022-10-16T23:20:18;8.98;;;7.90;;
66342;SDS011;53144;51.524;5.080;2022-10-16T23:25:09;13.88;;;8.68;;
66342;SDS011;53144;51.524;5.080;2022-10-16T23:30:00;11.88;;;7.60;;
66342;SDS011;53144;51.524;5.080;2022-10-16T23:34:50;8.77;;;7.15;;
66342;SDS011;53144;51.524;5.080;2022-10-16T23:39:41;10.25;;;7.53;;
66342;SDS011;53144;51.524;5.080;2022-10-16T23:42:06;9.15;;;7.20;;
66342;SDS011;53144;51.524;5.080;2022-10-16T23:44:32;8.93;;;7.35;;
66342;SDS011;53144;51.524;5.080;2022-10-16T23:49:23;9.70;;;7.07;;
66342;SDS011;53144;51.524;5.080;2022-10-16T23:54:14;7.57;;;6.88;;
66342;SDS011;53144;51.524;5.080;2022-10-16T23:59:05;8.20;;;6.53;;
